sensor_id;sensor_type;location;lat;lon;timestamp;P1;durP1;ratioP1;P2;durP2;ratioP2
32323;SDS011;25666;44.350;9.222;2023-02-26T00:01:20;36.30;;;15.82;;
32323;SDS011;25666;44.350;9.222;2023-02-26T00:03:48;54.28;;;16.25;;
32323;SDS011;25666;44.350;9.222;2023-02-26T00:06:15;50.83;;;16.33;;
32323;SDS011;25666;44.350;9.222;2023-02-26T00:08:40;50.30;;;17.27;;
32323;SDS011;25666;44.350;9.222;2023-02-26T00:11:06;58.80;;;17.48;;
32323;SDS011;25666;44.350;9.222;2023-02-26T00:13:32;50.15;;;17.15;;
32323;SDS011;25666;44.350;9.222;2023-02-26T00:15:59;39.85;;;15.80;;
32323;SDS011;25666;44.350;9.222;2023-02-26T00:18:25;43.47;;;16.95;;
32323;SDS011;25666;44.350;9.222;2023-02-26T00:20:51;45.20;;;16.98;;
32323;SDS011;25666;44.350;9.222;2023-02-26T00:23:17;37.55;;;17.23;;
32323;SDS011;25666;44.350;9.222;2023-02-26T00:25:43;51.00;;;15.32;;
32323;SDS011;25666;44.350;9.222;2023-02-26T00:28:10;52.17;;;16.25;;
32323;SDS011;25666;44.350;9.222;2023-02-26T00:30:36;43.25;;;18.70;;
32323;SDS011;25666;44.350;9.222;2023-02-26T00:33:02;45.75;;;16.38;;
32323;SDS011;25666;44.350;9.222;2023-02-26T00:35:29;45.22;;;15.77;;
32323;SDS011;25666;44.350;9.222;2023-02-26T00:38:11;42.22;;;15.60;;
32323;SDS011;25666;44.350;9.222;2023-02-26T00:43:15;43.88;;;15.70;;
32323;SDS011;25666;44.350;9.222;2023-02-26T00:54:04;35.80;;;13.48;;
32323;SDS011;25666;44.350;9.222;2023-02-26T00:56:49;32.13;;;13.40;;
32323;SDS011;25666;44.350;9.222;2023-02-26T00:59:16;40.67;;;15.82;;
32323;SDS011;25666;44.350;9.222;2023-02-26T01:01:42;44.85;;;14.02;;
32323;SDS011;25666;44.350;9.222;2023-02-26T01:04:08;47.53;;;15.05;;
32323;SDS011;25666;44.350;9.222;2023-02-26T01:06:39;32.63;;;14.45;;
32323;SDS011;25666;44.350;9.222;2023-02-26T01:09:13;41.60;;;14.45;;
32323;SDS011;25666;44.350;9.222;2023-02-26T01:11:43;45.83;;;14.95;;
32323;SDS011;25666;44.350;9.222;2023-02-26T01:14:08;33.92;;;13.90;;
32323;SDS011;25666;44.350;9.222;2023-02-26T01:16:37;38.88;;;12.75;;
32323;SDS011;25666;44.350;9.222;2023-02-26T01:19:17;28.65;;;12.57;;
32323;SDS011;25666;44.350;9.222;2023-02-26T01:21:53;21.20;;;10.25;;
32323;SDS011;25666;44.350;9.222;2023-02-26T01:24:24;39.08;;;11.93;;
32323;SDS011;25666;44.350;9.222;2023-02-26T01:26:51;23.55;;;9.52;;
32323;SDS011;25666;44.350;9.222;2023-02-26T01:29:17;38.85;;;11.15;;
32323;SDS011;25666;44.350;9.222;2023-02-26T01:34:27;30.73;;;8.55;;
32323;SDS011;25666;44.350;9.222;2023-02-26T01:37:15;28.92;;;8.77;;
32323;SDS011;25666;44.350;9.222;2023-02-26T01:40:32;41.08;;;10.40;;
32323;SDS011;25666;44.350;9.222;2023-02-26T01:42:54;31.65;;;8.98;;
32323;SDS011;25666;44.350;9.222;2023-02-26T01:45:33;34.78;;;9.40;;
32323;SDS011;25666;44.350;9.222;2023-02-26T01:48:10;33.67;;;10.55;;
32323;SDS011;25666;44.350;9.222;2023-02-26T01:50:46;31.55;;;8.85;;
32323;SDS011;25666;44.350;9.222;2023-02-26T01:55:50;21.10;;;8.32;;
32323;SDS011;25666;44.350;9.222;2023-02-26T01:58:20;28.10;;;8.20;;
32323;SDS011;25666;44.350;9.222;2023-02-26T02:00:48;26.63;;;8.60;;
32323;SDS011;25666;44.350;9.222;2023-02-26T02:03:13;27.48;;;9.00;;
32323;SDS011;25666;44.350;9.222;2023-02-26T02:05:44;29.60;;;8.18;;
32323;SDS011;25666;44.350;9.222;2023-02-26T02:08:14;23.05;;;7.22;;
32323;SDS011;25666;44.350;9.222;2023-02-26T02:10:41;23.33;;;8.70;;
32323;SDS011;25666;44.350;9.222;2023-02-26T02:32:32;29.52;;;11.88;;
32323;SDS011;25666;44.350;9.222;2023-02-26T02:37:49;32.90;;;10.77;;
32323;SDS011;25666;44.350;9.222;2023-02-26T02:40:33;34.17;;;9.93;;
32323;SDS011;25666;44.350;9.222;2023-02-26T02:43:03;35.22;;;12.88;;
32323;SDS011;25666;44.350;9.222;2023-02-26T02:46:05;30.80;;;11.88;;
32323;SDS011;25666;44.350;9.222;2023-02-26T02:48:45;26.38;;;10.20;;
32323;SDS011;25666;44.350;9.222;2023-02-26T02:51:20;23.23;;;9.75;;
32323;SDS011;25666;44.350;9.222;2023-02-26T02:54:02;26.23;;;8.88;;
32323;SDS011;25666;44.350;9.222;2023-02-26T02:56:32;24.42;;;9.70;;
32323;SDS011;25666;44.350;9.222;2023-02-26T03:01:27;29.23;;;10.95;;
32323;SDS011;25666;44.350;9.222;2023-02-26T03:06:35;31.13;;;11.48;;
32323;SDS011;25666;44.350;9.222;2023-02-26T03:09:03;27.50;;;10.98;;
32323;SDS011;25666;44.350;9.222;2023-02-26T03:11:30;40.00;;;11.50;;
32323;SDS011;25666;44.350;9.222;2023-02-26T03:13:56;25.80;;;10.30;;
32323;SDS011;25666;44.350;9.222;2023-02-26T03:19:00;29.77;;;10.95;;
32323;SDS011;25666;44.350;9.222;2023-02-26T03:24:17;27.88;;;10.93;;
32323;SDS011;25666;44.350;9.222;2023-02-26T03:26:55;39.67;;;14.15;;
32323;SDS011;25666;44.350;9.222;2023-02-26T03:29:37;28.35;;;10.75;;
32323;SDS011;25666;44.350;9.222;2023-02-26T03:32:13;39.67;;;12.25;;
32323;SDS011;25666;44.350;9.222;2023-02-26T03:34:48;43.28;;;12.88;;
32323;SDS011;25666;44.350;9.222;2023-02-26T03:37:19;35.83;;;12.90;;
32323;SDS011;25666;44.350;9.222;2023-02-26T03:39:55;27.95;;;10.32;;
32323;SDS011;25666;44.350;9.222;2023-02-26T03:42:36;30.05;;;11.80;;
32323;SDS011;25666;44.350;9.222;2023-02-26T03:45:09;29.45;;;13.05;;
32323;SDS011;25666;44.350;9.222;2023-02-26T03:47:39;30.35;;;11.43;;
32323;SDS011;25666;44.350;9.222;2023-02-26T03:50:10;28.88;;;10.68;;
32323;SDS011;25666;44.350;9.222;2023-02-26T03:52:48;31.90;;;12.07;;
32323;SDS011;25666;44.350;9.222;2023-02-26T03:55:31;43.13;;;12.63;;
32323;SDS011;25666;44.350;9.222;2023-02-26T03:58:16;39.95;;;11.38;;
32323;SDS011;25666;44.350;9.222;2023-02-26T04:00:54;41.53;;;14.10;;
32323;SDS011;25666;44.350;9.222;2023-02-26T04:03:33;34.30;;;12.38;;
32323;SDS011;25666;44.350;9.222;2023-02-26T04:06:21;34.58;;;10.68;;
32323;SDS011;25666;44.350;9.222;2023-02-26T04:08:47;35.75;;;12.23;;
32323;SDS011;25666;44.350;9.222;2023-02-26T04:11:20;31.23;;;12.15;;
32323;SDS011;25666;44.350;9.222;2023-02-26T04:13:47;37.20;;;12.10;;
32323;SDS011;25666;44.350;9.222;2023-02-26T04:16:14;35.88;;;11.90;;
32323;SDS011;25666;44.350;9.222;2023-02-26T04:18:40;40.25;;;14.43;;
32323;SDS011;25666;44.350;9.222;2023-02-26T04:21:09;40.75;;;14.25;;
32323;SDS011;25666;44.350;9.222;2023-02-26T04:23:38;39.88;;;12.90;;
32323;SDS011;25666;44.350;9.222;2023-02-26T04:26:04;44.42;;;15.15;;
32323;SDS011;25666;44.350;9.222;2023-02-26T04:28:34;44.92;;;16.67;;
32323;SDS011;25666;44.350;9.222;2023-02-26T04:31:02;34.28;;;14.13;;
32323;SDS011;25666;44.350;9.222;2023-02-26T04:33:29;37.35;;;13.50;;
32323;SDS011;25666;44.350;9.222;2023-02-26T04:35:55;41.50;;;15.05;;
32323;SDS011;25666;44.350;9.222;2023-02-26T04:38:21;32.60;;;13.20;;
32323;SDS011;25666;44.350;9.222;2023-02-26T04:40:47;41.25;;;13.30;;
32323;SDS011;25666;44.350;9.222;2023-02-26T04:43:14;39.45;;;13.90;;
32323;SDS011;25666;44.350;9.222;2023-02-26T04:45:47;42.35;;;16.20;;
32323;SDS011;25666;44.350;9.222;2023-02-26T04:48:13;49.45;;;15.52;;
32323;SDS011;25666;44.350;9.222;2023-02-26T04:50:40;51.70;;;15.43;;
32323;SDS011;25666;44.350;9.222;2023-02-26T04:53:05;48.20;;;14.65;;
32323;SDS011;25666;44.350;9.222;2023-02-26T04:55:33;38.45;;;15.00;;
32323;SDS011;25666;44.350;9.222;2023-02-26T04:57:59;43.30;;;13.30;;
32323;SDS011;25666;44.350;9.222;2023-02-26T05:00:25;43.83;;;16.13;;
32323;SDS011;25666;44.350;9.222;2023-02-26T05:02:50;40.55;;;13.85;;
32323;SDS011;25666;44.350;9.222;2023-02-26T05:05:16;43.30;;;14.60;;
32323;SDS011;25666;44.350;9.222;2023-02-26T05:07:42;40.33;;;12.55;;
32323;SDS011;25666;44.350;9.222;2023-02-26T05:10:07;32.28;;;10.57;;
32323;SDS011;25666;44.350;9.222;2023-02-26T05:12:34;32.38;;;11.18;;
32323;SDS011;25666;44.350;9.222;2023-02-26T05:14:59;24.60;;;8.77;;
32323;SDS011;25666;44.350;9.222;2023-02-26T05:17:25;25.17;;;7.10;;
32323;SDS011;25666;44.350;9.222;2023-02-26T05:19:50;20.52;;;8.05;;
32323;SDS011;25666;44.350;9.222;2023-02-26T05:22:16;16.23;;;6.90;;
32323;SDS011;25666;44.350;9.222;2023-02-26T05:24:41;25.67;;;8.20;;
32323;SDS011;25666;44.350;9.222;2023-02-26T05:27:08;39.35;;;10.25;;
32323;SDS011;25666;44.350;9.222;2023-02-26T05:29:39;32.65;;;11.13;;
32323;SDS011;25666;44.350;9.222;2023-02-26T05:32:06;25.77;;;9.32;;
32323;SDS011;25666;44.350;9.222;2023-02-26T05:34:32;29.85;;;9.10;;
32323;SDS011;25666;44.350;9.222;2023-02-26T05:36:57;26.13;;;9.63;;
32323;SDS011;25666;44.350;9.222;2023-02-26T05:39:23;17.10;;;7.07;;
32323;SDS011;25666;44.350;9.222;2023-02-26T05:41:48;29.40;;;7.85;;
32323;SDS011;25666;44.350;9.222;2023-02-26T05:44:15;13.35;;;6.35;;
32323;SDS011;25666;44.350;9.222;2023-02-26T05:46:41;14.00;;;6.45;;
32323;SDS011;25666;44.350;9.222;2023-02-26T05:49:07;21.23;;;6.75;;
32323;SDS011;25666;44.350;9.222;2023-02-26T05:51:32;17.50;;;6.30;;
32323;SDS011;25666;44.350;9.222;2023-02-26T05:53:58;18.08;;;6.38;;
32323;SDS011;25666;44.350;9.222;2023-02-26T05:56:23;13.80;;;6.38;;
32323;SDS011;25666;44.350;9.222;2023-02-26T05:58:49;15.38;;;6.03;;
32323;SDS011;25666;44.350;9.222;2023-02-26T06:01:14;17.05;;;7.00;;
32323;SDS011;25666;44.350;9.222;2023-02-26T06:03:40;17.10;;;7.60;;
32323;SDS011;25666;44.350;9.222;2023-02-26T06:06:12;21.23;;;6.65;;
32323;SDS011;25666;44.350;9.222;2023-02-26T06:08:40;19.23;;;7.25;;
32323;SDS011;25666;44.350;9.222;2023-02-26T06:11:05;25.67;;;7.35;;
32323;SDS011;25666;44.350;9.222;2023-02-26T06:13:31;33.40;;;10.35;;
32323;SDS011;25666;44.350;9.222;2023-02-26T06:15:56;25.55;;;10.40;;
32323;SDS011;25666;44.350;9.222;2023-02-26T06:18:22;28.67;;;11.80;;
32323;SDS011;25666;44.350;9.222;2023-02-26T06:20:47;26.58;;;8.50;;
32323;SDS011;25666;44.350;9.222;2023-02-26T06:23:13;23.02;;;9.23;;
32323;SDS011;25666;44.350;9.222;2023-02-26T06:25:41;27.30;;;10.52;;
32323;SDS011;25666;44.350;9.222;2023-02-26T06:28:07;25.30;;;9.95;;
32323;SDS011;25666;44.350;9.222;2023-02-26T06:30:33;22.40;;;9.32;;
32323;SDS011;25666;44.350;9.222;2023-02-26T06:32:59;31.33;;;10.07;;
32323;SDS011;25666;44.350;9.222;2023-02-26T06:35:25;33.92;;;10.43;;
32323;SDS011;25666;44.350;9.222;2023-02-26T06:37:52;31.65;;;11.02;;
32323;SDS011;25666;44.350;9.222;2023-02-26T06:40:17;26.83;;;10.88;;
32323;SDS011;25666;44.350;9.222;2023-02-26T06:42:43;27.27;;;10.13;;
32323;SDS011;25666;44.350;9.222;2023-02-26T06:45:09;23.77;;;10.57;;
32323;SDS011;25666;44.350;9.222;2023-02-26T06:47:34;27.20;;;9.90;;
32323;SDS011;25666;44.350;9.222;2023-02-26T06:50:00;22.67;;;9.95;;
32323;SDS011;25666;44.350;9.222;2023-02-26T06:52:28;30.00;;;9.05;;
32323;SDS011;25666;44.350;9.222;2023-02-26T06:54:53;32.17;;;9.18;;
32323;SDS011;25666;44.350;9.222;2023-02-26T06:57:19;16.90;;;8.05;;
32323;SDS011;25666;44.350;9.222;2023-02-26T06:59:44;23.23;;;8.50;;
32323;SDS011;25666;44.350;9.222;2023-02-26T07:02:17;24.30;;;8.43;;
32323;SDS011;25666;44.350;9.222;2023-02-26T07:04:44;30.42;;;10.00;;
32323;SDS011;25666;44.350;9.222;2023-02-26T07:07:10;25.45;;;8.60;;
32323;SDS011;25666;44.350;9.222;2023-02-26T07:09:36;22.20;;;8.40;;
32323;SDS011;25666;44.350;9.222;2023-02-26T07:12:02;18.73;;;8.20;;
32323;SDS011;25666;44.350;9.222;2023-02-26T07:14:28;23.02;;;8.52;;
32323;SDS011;25666;44.350;9.222;2023-02-26T07:16:54;20.70;;;8.48;;
32323;SDS011;25666;44.350;9.222;2023-02-26T07:19:19;21.50;;;8.43;;
32323;SDS011;25666;44.350;9.222;2023-02-26T07:21:45;19.30;;;7.70;;
32323;SDS011;25666;44.350;9.222;2023-02-26T07:24:11;21.70;;;7.60;;
32323;SDS011;25666;44.350;9.222;2023-02-26T07:26:37;27.15;;;8.13;;
32323;SDS011;25666;44.350;9.222;2023-02-26T07:29:03;25.42;;;8.82;;
32323;SDS011;25666;44.350;9.222;2023-02-26T07:31:29;17.35;;;7.43;;
32323;SDS011;25666;44.350;9.222;2023-02-26T07:33:54;25.33;;;8.90;;
32323;SDS011;25666;44.350;9.222;2023-02-26T07:36:20;19.90;;;8.07;;
32323;SDS011;25666;44.350;9.222;2023-02-26T07:38:45;21.05;;;8.25;;
32323;SDS011;25666;44.350;9.222;2023-02-26T07:41:10;16.27;;;8.43;;
32323;SDS011;25666;44.350;9.222;2023-02-26T07:43:36;25.58;;;8.95;;
32323;SDS011;25666;44.350;9.222;2023-02-26T07:46:02;19.33;;;8.25;;
32323;SDS011;25666;44.350;9.222;2023-02-26T07:48:28;28.88;;;11.00;;
32323;SDS011;25666;44.350;9.222;2023-02-26T07:50:53;29.40;;;9.57;;
32323;SDS011;25666;44.350;9.222;2023-02-26T07:53:19;24.60;;;8.13;;
32323;SDS011;25666;44.350;9.222;2023-02-26T07:55:46;9.00;;;4.28;;
32323;SDS011;25666;44.350;9.222;2023-02-26T07:58:11;2.60;;;1.88;;
32323;SDS011;25666;44.350;9.222;2023-02-26T08:00:37;3.78;;;1.95;;
32323;SDS011;25666;44.350;9.222;2023-02-26T08:03:02;3.03;;;1.45;;
32323;SDS011;25666;44.350;9.222;2023-02-26T08:05:28;5.30;;;2.38;;
32323;SDS011;25666;44.350;9.222;2023-02-26T08:07:54;3.15;;;2.13;;
32323;SDS011;25666;44.350;9.222;2023-02-26T08:10:19;2.42;;;1.75;;
32323;SDS011;25666;44.350;9.222;2023-02-26T08:12:44;2.25;;;1.25;;
32323;SDS011;25666;44.350;9.222;2023-02-26T08:15:10;1.13;;;0.70;;
32323;SDS011;25666;44.350;9.222;2023-02-26T08:17:38;0.77;;;0.60;;
32323;SDS011;25666;44.350;9.222;2023-02-26T08:20:05;1.40;;;0.70;;
32323;SDS011;25666;44.350;9.222;2023-02-26T08:22:32;3.90;;;0.70;;
32323;SDS011;25666;44.350;9.222;2023-02-26T08:24:58;0.80;;;0.70;;
32323;SDS011;25666;44.350;9.222;2023-02-26T08:27:24;0.57;;;0.47;;
32323;SDS011;25666;44.350;9.222;2023-02-26T08:29:49;3.55;;;0.73;;
32323;SDS011;25666;44.350;9.222;2023-02-26T08:32:15;4.07;;;0.70;;
32323;SDS011;25666;44.350;9.222;2023-02-26T08:34:42;0.60;;;0.60;;
32323;SDS011;25666;44.350;9.222;2023-02-26T08:37:07;2.17;;;1.02;;
32323;SDS011;25666;44.350;9.222;2023-02-26T08:39:35;0.70;;;0.55;;
32323;SDS011;25666;44.350;9.222;2023-02-26T08:42:06;0.88;;;0.60;;
32323;SDS011;25666;44.350;9.222;2023-02-26T08:44:32;0.93;;;0.50;;
32323;SDS011;25666;44.350;9.222;2023-02-26T08:46:58;0.47;;;0.30;;
32323;SDS011;25666;44.350;9.222;2023-02-26T08:49:24;0.50;;;0.40;;
32323;SDS011;25666;44.350;9.222;2023-02-26T08:51:49;0.30;;;0.30;;
32323;SDS011;25666;44.350;9.222;2023-02-26T08:54:15;0.43;;;0.35;;
32323;SDS011;25666;44.350;9.222;2023-02-26T08:56:40;0.30;;;0.28;;
32323;SDS011;25666;44.350;9.222;2023-02-26T08:59:06;0.30;;;0.30;;
32323;SDS011;25666;44.350;9.222;2023-02-26T09:01:34;1.30;;;0.70;;
32323;SDS011;25666;44.350;9.222;2023-02-26T09:03:59;0.80;;;0.50;;
32323;SDS011;25666;44.350;9.222;2023-02-26T09:06:25;0.40;;;0.30;;
32323;SDS011;25666;44.350;9.222;2023-02-26T09:08:50;0.20;;;0.20;;
32323;SDS011;25666;44.350;9.222;2023-02-26T09:11:15;0.63;;;0.38;;
32323;SDS011;25666;44.350;9.222;2023-02-26T09:13:41;1.17;;;0.45;;
32323;SDS011;25666;44.350;9.222;2023-02-26T09:16:06;0.35;;;0.20;;
32323;SDS011;25666;44.350;9.222;2023-02-26T09:18:32;0.35;;;0.35;;
32323;SDS011;25666;44.350;9.222;2023-02-26T09:20:58;0.40;;;0.40;;
32323;SDS011;25666;44.350;9.222;2023-02-26T09:23:23;1.50;;;1.40;;
32323;SDS011;25666;44.350;9.222;2023-02-26T09:25:53;2.05;;;0.60;;
32323;SDS011;25666;44.350;9.222;2023-02-26T09:28:19;0.47;;;0.40;;
32323;SDS011;25666;44.350;9.222;2023-02-26T09:30:45;0.63;;;0.40;;
32323;SDS011;25666;44.350;9.222;2023-02-26T09:33:11;0.98;;;0.60;;
32323;SDS011;25666;44.350;9.222;2023-02-26T09:35:36;2.75;;;0.40;;
32323;SDS011;25666;44.350;9.222;2023-02-26T09:38:02;2.38;;;0.57;;
32323;SDS011;25666;44.350;9.222;2023-02-26T09:40:35;3.83;;;0.55;;
32323;SDS011;25666;44.350;9.222;2023-02-26T09:45:46;0.98;;;0.73;;
32323;SDS011;25666;44.350;9.222;2023-02-26T09:48:15;1.90;;;0.82;;
32323;SDS011;25666;44.350;9.222;2023-02-26T09:50:44;0.85;;;0.65;;
32323;SDS011;25666;44.350;9.222;2023-02-26T09:53:16;1.05;;;0.68;;
32323;SDS011;25666;44.350;9.222;2023-02-26T09:55:57;1.23;;;0.70;;
32323;SDS011;25666;44.350;9.222;2023-02-26T10:06:52;1.10;;;0.80;;
32323;SDS011;25666;44.350;9.222;2023-02-26T10:09:39;3.55;;;0.68;;
32323;SDS011;25666;44.350;9.222;2023-02-26T10:12:18;2.92;;;1.40;;
32323;SDS011;25666;44.350;9.222;2023-02-26T10:20:14;3.15;;;0.70;;
32323;SDS011;25666;44.350;9.222;2023-02-26T10:22:48;3.58;;;0.82;;
32323;SDS011;25666;44.350;9.222;2023-02-26T10:25:36;1.92;;;0.93;;
32323;SDS011;25666;44.350;9.222;2023-02-26T10:28:16;1.02;;;0.70;;
32323;SDS011;25666;44.350;9.222;2023-02-26T10:31:02;3.22;;;0.95;;
32323;SDS011;25666;44.350;9.222;2023-02-26T10:33:43;2.08;;;0.57;;
32323;SDS011;25666;44.350;9.222;2023-02-26T10:38:51;2.30;;;0.80;;
32323;SDS011;25666;44.350;9.222;2023-02-26T10:41:24;0.65;;;0.65;;
32323;SDS011;25666;44.350;9.222;2023-02-26T10:44:16;0.70;;;0.70;;
32323;SDS011;25666;44.350;9.222;2023-02-26T10:46:56;0.68;;;0.60;;
32323;SDS011;25666;44.350;9.222;2023-02-26T10:52:18;1.02;;;0.70;;
32323;SDS011;25666;44.350;9.222;2023-02-26T10:57:34;0.40;;;0.40;;
32323;SDS011;25666;44.350;9.222;2023-02-26T11:00:03;0.70;;;0.43;;
32323;SDS011;25666;44.350;9.222;2023-02-26T11:02:35;2.17;;;1.02;;
32323;SDS011;25666;44.350;9.222;2023-02-26T11:05:07;1.50;;;0.73;;
32323;SDS011;25666;44.350;9.222;2023-02-26T11:07:42;1.63;;;0.90;;
32323;SDS011;25666;44.350;9.222;2023-02-26T11:10:19;0.98;;;0.80;;
32323;SDS011;25666;44.350;9.222;2023-02-26T11:12:47;1.17;;;0.60;;
32323;SDS011;25666;44.350;9.222;2023-02-26T11:15:14;1.55;;;0.60;;
32323;SDS011;25666;44.350;9.222;2023-02-26T11:17:45;2.03;;;0.90;;
32323;SDS011;25666;44.350;9.222;2023-02-26T11:22:48;0.80;;;0.45;;
32323;SDS011;25666;44.350;9.222;2023-02-26T11:25:19;0.45;;;0.40;;
32323;SDS011;25666;44.350;9.222;2023-02-26T11:27:49;0.63;;;0.40;;
32323;SDS011;25666;44.350;9.222;2023-02-26T11:30:24;3.97;;;2.08;;
32323;SDS011;25666;44.350;9.222;2023-02-26T11:32:52;0.60;;;0.40;;
32323;SDS011;25666;44.350;9.222;2023-02-26T11:35:22;1.67;;;0.60;;
32323;SDS011;25666;44.350;9.222;2023-02-26T11:37:55;0.95;;;0.77;;
32323;SDS011;25666;44.350;9.222;2023-02-26T11:40:37;0.35;;;0.35;;
32323;SDS011;25666;44.350;9.222;2023-02-26T11:43:06;1.02;;;0.60;;
32323;SDS011;25666;44.350;9.222;2023-02-26T11:45:38;0.50;;;0.32;;
32323;SDS011;25666;44.350;9.222;2023-02-26T11:48:09;0.30;;;0.30;;
32323;SDS011;25666;44.350;9.222;2023-02-26T11:50:45;0.40;;;0.40;;
32323;SDS011;25666;44.350;9.222;2023-02-26T11:53:17;0.38;;;0.30;;
32323;SDS011;25666;44.350;9.222;2023-02-26T11:56:08;0.65;;;0.30;;
32323;SDS011;25666;44.350;9.222;2023-02-26T11:58:37;0.40;;;0.40;;
32323;SDS011;25666;44.350;9.222;2023-02-26T12:01:05;0.30;;;0.30;;
32323;SDS011;25666;44.350;9.222;2023-02-26T12:03:36;2.42;;;0.40;;
32323;SDS011;25666;44.350;9.222;2023-02-26T12:06:06;3.30;;;0.40;;
32323;SDS011;25666;44.350;9.222;2023-02-26T12:08:39;0.20;;;0.20;;
32323;SDS011;25666;44.350;9.222;2023-02-26T12:11:27;0.30;;;0.30;;
32323;SDS011;25666;44.350;9.222;2023-02-26T12:17:05;3.05;;;0.40;;
32323;SDS011;25666;44.350;9.222;2023-02-26T12:28:42;0.55;;;0.30;;
32323;SDS011;25666;44.350;9.222;2023-02-26T12:31:32;0.73;;;0.40;;
32323;SDS011;25666;44.350;9.222;2023-02-26T12:34:44;0.55;;;0.30;;
32323;SDS011;25666;44.350;9.222;2023-02-26T12:37:32;0.25;;;0.22;;
32323;SDS011;25666;44.350;9.222;2023-02-26T12:40:16;1.00;;;0.50;;
32323;SDS011;25666;44.350;9.222;2023-02-26T12:43:22;0.85;;;0.40;;
32323;SDS011;25666;44.350;9.222;2023-02-26T12:48:47;0.90;;;0.30;;
32323;SDS011;25666;44.350;9.222;2023-02-26T12:56:32;0.57;;;0.38;;
32323;SDS011;25666;44.350;9.222;2023-02-26T13:13:43;0.40;;;0.40;;
32323;SDS011;25666;44.350;9.222;2023-02-26T13:16:51;0.32;;;0.32;;
32323;SDS011;25666;44.350;9.222;2023-02-26T13:21:56;0.68;;;0.50;;
32323;SDS011;25666;44.350;9.222;2023-02-26T13:24:40;0.68;;;0.50;;
32323;SDS011;25666;44.350;9.222;2023-02-26T13:27:10;1.85;;;0.70;;
32323;SDS011;25666;44.350;9.222;2023-02-26T13:29:50;0.50;;;0.50;;
32323;SDS011;25666;44.350;9.222;2023-02-26T13:32:30;0.50;;;0.50;;
32323;SDS011;25666;44.350;9.222;2023-02-26T13:35:21;1.15;;;0.70;;
32323;SDS011;25666;44.350;9.222;2023-02-26T13:37:54;0.40;;;0.40;;
32323;SDS011;25666;44.350;9.222;2023-02-26T13:40:27;0.40;;;0.40;;
32323;SDS011;25666;44.350;9.222;2023-02-26T13:45:47;0.70;;;0.43;;
32323;SDS011;25666;44.350;9.222;2023-02-26T13:54:02;1.25;;;0.70;;
32323;SDS011;25666;44.350;9.222;2023-02-26T14:06:43;1.13;;;0.60;;
32323;SDS011;25666;44.350;9.222;2023-02-26T14:14:24;1.23;;;0.50;;
32323;SDS011;25666;44.350;9.222;2023-02-26T14:27:36;1.40;;;0.60;;
32323;SDS011;25666;44.350;9.222;2023-02-26T14:32:45;0.50;;;0.40;;
32323;SDS011;25666;44.350;9.222;2023-02-26T14:38:20;0.65;;;0.40;;
32323;SDS011;25666;44.350;9.222;2023-02-26T14:43:51;1.83;;;0.82;;
32323;SDS011;25666;44.350;9.222;2023-02-26T14:46:27;0.35;;;0.32;;
32323;SDS011;25666;44.350;9.222;2023-02-26T14:48:54;0.50;;;0.50;;
32323;SDS011;25666;44.350;9.222;2023-02-26T14:56:53;0.57;;;0.50;;
32323;SDS011;25666;44.350;9.222;2023-02-26T14:59:35;0.68;;;0.50;;
32323;SDS011;25666;44.350;9.222;2023-02-26T15:19:25;2.05;;;0.57;;
32323;SDS011;25666;44.350;9.222;2023-02-26T15:22:29;4.18;;;0.50;;
32323;SDS011;25666;44.350;9.222;2023-02-26T15:25:00;0.40;;;0.40;;
32323;SDS011;25666;44.350;9.222;2023-02-26T15:27:28;1.33;;;0.40;;
32323;SDS011;25666;44.350;9.222;2023-02-26T15:29:55;0.40;;;0.40;;
32323;SDS011;25666;44.350;9.222;2023-02-26T15:32:24;0.57;;;0.40;;
32323;SDS011;25666;44.350;9.222;2023-02-26T15:35:06;0.95;;;0.52;;
32323;SDS011;25666;44.350;9.222;2023-02-26T15:37:42;0.52;;;0.40;;
32323;SDS011;25666;44.350;9.222;2023-02-26T15:40:17;0.63;;;0.50;;
32323;SDS011;25666;44.350;9.222;2023-02-26T15:42:43;0.30;;;0.30;;
32323;SDS011;25666;44.350;9.222;2023-02-26T15:45:21;2.63;;;0.60;;
32323;SDS011;25666;44.350;9.222;2023-02-26T15:47:59;0.50;;;0.50;;
32323;SDS011;25666;44.350;9.222;2023-02-26T15:50:28;0.40;;;0.30;;
32323;SDS011;25666;44.350;9.222;2023-02-26T15:52:57;0.60;;;0.40;;
32323;SDS011;25666;44.350;9.222;2023-02-26T15:55:27;0.30;;;0.30;;
32323;SDS011;25666;44.350;9.222;2023-02-26T15:57:57;0.68;;;0.60;;
32323;SDS011;25666;44.350;9.222;2023-02-26T16:00:23;0.88;;;0.40;;
32323;SDS011;25666;44.350;9.222;2023-02-26T16:02:52;0.35;;;0.30;;
32323;SDS011;25666;44.350;9.222;2023-02-26T16:05:21;1.20;;;0.47;;
32323;SDS011;25666;44.350;9.222;2023-02-26T16:07:48;0.50;;;0.40;;
32323;SDS011;25666;44.350;9.222;2023-02-26T16:10:25;5.32;;;1.17;;
32323;SDS011;25666;44.350;9.222;2023-02-26T16:12:51;1.23;;;0.65;;
32323;SDS011;25666;44.350;9.222;2023-02-26T16:15:29;2.70;;;0.60;;
32323;SDS011;25666;44.350;9.222;2023-02-26T16:17:58;0.30;;;0.30;;
32323;SDS011;25666;44.350;9.222;2023-02-26T16:20:26;0.80;;;0.55;;
32323;SDS011;25666;44.350;9.222;2023-02-26T16:22:58;0.68;;;0.40;;
32323;SDS011;25666;44.350;9.222;2023-02-26T16:25:27;1.50;;;0.55;;
32323;SDS011;25666;44.350;9.222;2023-02-26T16:28:04;0.65;;;0.50;;
32323;SDS011;25666;44.350;9.222;2023-02-26T16:30:37;1.58;;;0.40;;
32323;SDS011;25666;44.350;9.222;2023-02-26T16:33:09;2.65;;;0.50;;
32323;SDS011;25666;44.350;9.222;2023-02-26T16:35:38;3.53;;;0.50;;
32323;SDS011;25666;44.350;9.222;2023-02-26T16:38:16;5.80;;;0.60;;
32323;SDS011;25666;44.350;9.222;2023-02-26T16:40:47;0.35;;;0.35;;
32323;SDS011;25666;44.350;9.222;2023-02-26T16:45:53;1.23;;;0.55;;
32323;SDS011;25666;44.350;9.222;2023-02-26T16:48:25;0.40;;;0.40;;
32323;SDS011;25666;44.350;9.222;2023-02-26T16:53:41;1.67;;;0.47;;
32323;SDS011;25666;44.350;9.222;2023-02-26T16:56:13;1.17;;;0.52;;
32323;SDS011;25666;44.350;9.222;2023-02-26T16:58:43;0.40;;;0.40;;
32323;SDS011;25666;44.350;9.222;2023-02-26T17:01:12;0.93;;;0.70;;
32323;SDS011;25666;44.350;9.222;2023-02-26T17:03:41;0.50;;;0.40;;
32323;SDS011;25666;44.350;9.222;2023-02-26T17:06:13;2.90;;;0.57;;
32323;SDS011;25666;44.350;9.222;2023-02-26T17:09:44;0.52;;;0.47;;
32323;SDS011;25666;44.350;9.222;2023-02-26T17:12:10;0.63;;;0.63;;
32323;SDS011;25666;44.350;9.222;2023-02-26T17:14:39;0.82;;;0.50;;
32323;SDS011;25666;44.350;9.222;2023-02-26T17:17:17;0.50;;;0.50;;
32323;SDS011;25666;44.350;9.222;2023-02-26T17:19:43;1.70;;;0.60;;
32323;SDS011;25666;44.350;9.222;2023-02-26T17:22:11;0.93;;;0.50;;
32323;SDS011;25666;44.350;9.222;2023-02-26T17:24:39;4.53;;;0.63;;
32323;SDS011;25666;44.350;9.222;2023-02-26T17:27:10;0.80;;;0.50;;
32323;SDS011;25666;44.350;9.222;2023-02-26T17:29:39;0.65;;;0.50;;
32323;SDS011;25666;44.350;9.222;2023-02-26T17:32:17;1.00;;;0.50;;
32323;SDS011;25666;44.350;9.222;2023-02-26T17:34:45;0.68;;;0.50;;
32323;SDS011;25666;44.350;9.222;2023-02-26T17:37:11;0.47;;;0.45;;
32323;SDS011;25666;44.350;9.222;2023-02-26T17:39:37;2.28;;;0.60;;
32323;SDS011;25666;44.350;9.222;2023-02-26T17:42:07;1.15;;;0.55;;
32323;SDS011;25666;44.350;9.222;2023-02-26T17:44:34;3.30;;;0.47;;
32323;SDS011;25666;44.350;9.222;2023-02-26T17:46:59;0.75;;;0.40;;
32323;SDS011;25666;44.350;9.222;2023-02-26T17:49:25;0.70;;;0.50;;
32323;SDS011;25666;44.350;9.222;2023-02-26T17:51:50;0.40;;;0.40;;
32323;SDS011;25666;44.350;9.222;2023-02-26T17:54:18;5.95;;;0.82;;
32323;SDS011;25666;44.350;9.222;2023-02-26T17:56:44;0.77;;;0.52;;
32323;SDS011;25666;44.350;9.222;2023-02-26T17:59:09;0.80;;;0.70;;
32323;SDS011;25666;44.350;9.222;2023-02-26T18:01:37;1.85;;;0.52;;
32323;SDS011;25666;44.350;9.222;2023-02-26T18:04:03;1.13;;;0.40;;